Kezdőlap
METAR-TAF:

METAR-TAF

Repülőterek :

Meiringen, Svájc

földrajzi szélesség: 46-44-25N, földrajzi hosszúság: 8-06-36E, magasság: 577 m

Jelenlegi meteorológiai megfigyelések

A jelentés 33 perccel ezelõtt készült, 18:20 UTC
Szélcsend
Hőmérséklet 2°C
Páratartalom 93%
Légköri nyomás 1027 hPa
Látótávolság 10 km, vagy több
Borult 5600 lábon
enyhe záporok

METAR: LSMM 191820Z AUTO 00000KT 9999NDV -SHRA OVC056 02/01 Q1027 RMK

Idő: 19:53 (18:53 UTC)


TAF: hiányzik

Meteorológiai megfigyelések és előrejelzések több, mint 4000 repülőtéren (METAR és TAF jelentéseket).

A térképen piros és sárga pontok jelzik az elérhető meteorológiai állomásokat.

Mozgassa az egeret a pont fölött, hogy megjelenjen az állomás neve.

Azután kattintson az időjárási megfigyelések és előrejelzések megtekintéséhez.

A térkép megváltoztatása: kattintson a fekete keresztel jelölt zöld gombra ráközelítéshez, a vonallal jelölt zöld gombra távolításhoz, vagy a zöld nyilakra a szomszédos térképek eléréséhez.


METAR-TAF: